sensor_id;sensor_type;location;lat;lon;timestamp;temperature;humidity
9776;DHT22;4927;52.472;13.108;2022-10-18T00:03:42;14.50;99.90
9776;DHT22;4927;52.472;13.108;2022-10-18T00:08:48;14.50;99.90
9776;DHT22;4927;52.472;13.108;2022-10-18T00:13:54;14.50;99.90
9776;DHT22;4927;52.472;13.108;2022-10-18T00:19:00;14.60;99.90
9776;DHT22;4927;52.472;13.108;2022-10-18T00:24:07;14.60;99.90
9776;DHT22;4927;52.472;13.108;2022-10-18T00:29:13;14.50;99.90
9776;DHT22;4927;52.472;13.108;2022-10-18T00:34:20;14.40;99.90
9776;DHT22;4927;52.472;13.108;2022-10-18T00:39:26;14.40;99.90
9776;DHT22;4927;52.472;13.108;2022-10-18T00:50:01;14.40;99.90
9776;DHT22;4927;52.472;13.108;2022-10-18T00:55:07;14.40;99.90
9776;DHT22;4927;52.472;13.108;2022-10-18T01:00:14;14.40;99.90
9776;DHT22;4927;52.472;13.108;2022-10-18T01:05:20;14.40;99.90
9776;DHT22;4927;52.472;13.108;2022-10-18T01:10:30;14.50;99.90
9776;DHT22;4927;52.472;13.108;2022-10-18T01:15:36;14.50;99.90
9776;DHT22;4927;52.472;13.108;2022-10-18T01:21:08;14.70;99.90
9776;DHT22;4927;52.472;13.108;2022-10-18T01:26:34;14.80;99.90
9776;DHT22;4927;52.472;13.108;2022-10-18T01:31:42;14.90;99.90
9776;DHT22;4927;52.472;13.108;2022-10-18T01:36:47;14.90;99.90
9776;DHT22;4927;52.472;13.108;2022-10-18T01:41:50;15.00;99.90
9776;DHT22;4927;52.472;13.108;2022-10-18T01:46:57;15.10;99.90
9776;DHT22;4927;52.472;13.108;2022-10-18T01:52:03;15.20;99.90
9776;DHT22;4927;52.472;13.108;2022-10-18T01:57:16;15.30;99.90
9776;DHT22;4927;52.472;13.108;2022-10-18T02:02:38;15.40;99.90
9776;DHT22;4927;52.472;13.108;2022-10-18T02:07:43;15.50;99.90
9776;DHT22;4927;52.472;13.108;2022-10-18T02:12:47;15.50;99.90
9776;DHT22;4927;52.472;13.108;2022-10-18T02:17:54;15.60;99.90
9776;DHT22;4927;52.472;13.108;2022-10-18T02:23:00;15.60;99.90
9776;DHT22;4927;52.472;13.108;2022-10-18T02:28:06;15.60;99.90
9776;DHT22;4927;52.472;13.108;2022-10-18T02:33:20;15.60;99.90
9776;DHT22;4927;52.472;13.108;2022-10-18T02:38:24;15.60;99.90
9776;DHT22;4927;52.472;13.108;2022-10-18T02:43:30;15.60;99.90
9776;DHT22;4927;52.472;13.108;2022-10-18T02:48:36;15.60;99.90
9776;DHT22;4927;52.472;13.108;2022-10-18T02:53:42;15.70;99.90
9776;DHT22;4927;52.472;13.108;2022-10-18T02:58:49;15.70;99.90
9776;DHT22;4927;52.472;13.108;2022-10-18T03:03:56;15.70;99.90
9776;DHT22;4927;52.472;13.108;2022-10-18T03:09:03;15.80;99.90
9776;DHT22;4927;52.472;13.108;2022-10-18T03:14:09;15.80;99.90
9776;DHT22;4927;52.472;13.108;2022-10-18T03:19:13;15.80;99.90
9776;DHT22;4927;52.472;13.108;2022-10-18T03:24:19;15.80;99.90
9776;DHT22;4927;52.472;13.108;2022-10-18T03:29:26;15.80;99.90
9776;DHT22;4927;52.472;13.108;2022-10-18T03:34:32;15.80;99.90
9776;DHT22;4927;52.472;13.108;2022-10-18T03:39:38;15.80;99.90
9776;DHT22;4927;52.472;13.108;2022-10-18T03:44:43;15.80;99.90
9776;DHT22;4927;52.472;13.108;2022-10-18T03:49:49;15.80;99.90
9776;DHT22;4927;52.472;13.108;2022-10-18T03:54:55;15.70;99.90
9776;DHT22;4927;52.472;13.108;2022-10-18T04:00:02;15.70;99.90
9776;DHT22;4927;52.472;13.108;2022-10-18T04:05:08;15.60;99.90
9776;DHT22;4927;52.472;13.108;2022-10-18T04:10:15;15.50;99.90
9776;DHT22;4927;52.472;13.108;2022-10-18T04:15:21;15.50;99.90
9776;DHT22;4927;52.472;13.108;2022-10-18T04:20:28;15.50;99.90
9776;DHT22;4927;52.472;13.108;2022-10-18T04:25:34;15.50;99.90
9776;DHT22;4927;52.472;13.108;2022-10-18T04:30:40;15.50;99.90
9776;DHT22;4927;52.472;13.108;2022-10-18T04:35:49;15.50;99.90
9776;DHT22;4927;52.472;13.108;2022-10-18T04:40:53;15.40;99.90
9776;DHT22;4927;52.472;13.108;2022-10-18T04:45:59;15.40;99.90
9776;DHT22;4927;52.472;13.108;2022-10-18T04:51:05;15.40;99.90
9776;DHT22;4927;52.472;13.108;2022-10-18T04:56:11;15.30;99.90
9776;DHT22;4927;52.472;13.108;2022-10-18T05:01:18;15.30;99.90
9776;DHT22;4927;52.472;13.108;2022-10-18T05:06:24;15.20;99.90
9776;DHT22;4927;52.472;13.108;2022-10-18T05:11:31;15.20;99.90
9776;DHT22;4927;52.472;13.108;2022-10-18T05:16:37;15.10;99.90
9776;DHT22;4927;52.472;13.108;2022-10-18T05:21:43;15.10;99.90
9776;DHT22;4927;52.472;13.108;2022-10-18T05:26:49;15.00;99.90
9776;DHT22;4927;52.472;13.108;2022-10-18T05:31:57;14.90;99.90
9776;DHT22;4927;52.472;13.108;2022-10-18T05:37:03;15.00;99.90
9776;DHT22;4927;52.472;13.108;2022-10-18T05:42:10;14.90;99.90
9776;DHT22;4927;52.472;13.108;2022-10-18T05:47:16;14.90;99.90
9776;DHT22;4927;52.472;13.108;2022-10-18T05:52:22;14.90;99.90
9776;DHT22;4927;52.472;13.108;2022-10-18T05:57:28;14.90;99.90
9776;DHT22;4927;52.472;13.108;2022-10-18T06:02:35;14.80;99.90
9776;DHT22;4927;52.472;13.108;2022-10-18T06:07:41;14.80;99.90
9776;DHT22;4927;52.472;13.108;2022-10-18T06:12:48;14.80;99.90
9776;DHT22;4927;52.472;13.108;2022-10-18T06:17:54;14.80;99.90
9776;DHT22;4927;52.472;13.108;2022-10-18T06:23:01;14.90;99.90
9776;DHT22;4927;52.472;13.108;2022-10-18T06:28:07;14.90;99.90
9776;DHT22;4927;52.472;13.108;2022-10-18T06:33:13;14.90;99.90
9776;DHT22;4927;52.472;13.108;2022-10-18T06:38:20;14.90;99.90
9776;DHT22;4927;52.472;13.108;2022-10-18T06:43:26;14.90;99.90
9776;DHT22;4927;52.472;13.108;2022-10-18T06:48:34;14.90;99.90
9776;DHT22;4927;52.472;13.108;2022-10-18T06:53:39;15.00;99.90
9776;DHT22;4927;52.472;13.108;2022-10-18T06:58:46;15.00;99.90
9776;DHT22;4927;52.472;13.108;2022-10-18T07:03:52;15.10;99.90
9776;DHT22;4927;52.472;13.108;2022-10-18T07:08:58;15.10;99.90
9776;DHT22;4927;52.472;13.108;2022-10-18T07:14:03;15.20;99.90
9776;DHT22;4927;52.472;13.108;2022-10-18T07:19:09;15.40;99.90
9776;DHT22;4927;52.472;13.108;2022-10-18T07:24:16;15.40;99.90
9776;DHT22;4927;52.472;13.108;2022-10-18T07:29:23;15.50;99.90
9776;DHT22;4927;52.472;13.108;2022-10-18T07:34:29;15.50;99.90
9776;DHT22;4927;52.472;13.108;2022-10-18T07:39:35;15.60;99.90
9776;DHT22;4927;52.472;13.108;2022-10-18T07:44:41;15.60;99.90
9776;DHT22;4927;52.472;13.108;2022-10-18T07:49:48;15.60;99.90
9776;DHT22;4927;52.472;13.108;2022-10-18T07:54:52;15.60;99.90
9776;DHT22;4927;52.472;13.108;2022-10-18T07:59:58;15.60;99.90
9776;DHT22;4927;52.472;13.108;2022-10-18T08:05:04;15.50;99.90
9776;DHT22;4927;52.472;13.108;2022-10-18T08:10:11;15.50;99.90
9776;DHT22;4927;52.472;13.108;2022-10-18T08:15:17;15.50;99.90
9776;DHT22;4927;52.472;13.108;2022-10-18T08:20:23;15.50;99.90
9776;DHT22;4927;52.472;13.108;2022-10-18T08:25:29;15.40;99.90
9776;DHT22;4927;52.472;13.108;2022-10-18T08:30:36;15.40;99.90
9776;DHT22;4927;52.472;13.108;2022-10-18T08:35:42;15.40;99.90
9776;DHT22;4927;52.472;13.108;2022-10-18T08:40:49;15.40;99.90
9776;DHT22;4927;52.472;13.108;2022-10-18T08:45:55;15.30;99.90
9776;DHT22;4927;52.472;13.108;2022-10-18T08:51:02;15.40;99.90
9776;DHT22;4927;52.472;13.108;2022-10-18T08:56:09;15.40;99.90
9776;DHT22;4927;52.472;13.108;2022-10-18T09:01:39;15.50;99.90
9776;DHT22;4927;52.472;13.108;2022-10-18T09:07:01;15.50;99.90
9776;DHT22;4927;52.472;13.108;2022-10-18T09:23:18;15.40;99.90
9776;DHT22;4927;52.472;13.108;2022-10-18T09:33:57;15.50;99.90
9776;DHT22;4927;52.472;13.108;2022-10-18T09:39:02;15.50;99.90
9776;DHT22;4927;52.472;13.108;2022-10-18T09:44:38;15.50;99.90
9776;DHT22;4927;52.472;13.108;2022-10-18T09:49:44;15.60;99.90
9776;DHT22;4927;52.472;13.108;2022-10-18T09:54:51;15.60;99.90
9776;DHT22;4927;52.472;13.108;2022-10-18T09:59:58;15.50;99.90
9776;DHT22;4927;52.472;13.108;2022-10-18T10:05:05;15.50;99.90
9776;DHT22;4927;52.472;13.108;2022-10-18T10:10:15;15.50;99.90
9776;DHT22;4927;52.472;13.108;2022-10-18T10:15:21;15.50;99.90
9776;DHT22;4927;52.472;13.108;2022-10-18T10:20:34;15.50;99.90
9776;DHT22;4927;52.472;13.108;2022-10-18T10:25:39;15.60;99.90
9776;DHT22;4927;52.472;13.108;2022-10-18T10:30:46;15.60;99.90
9776;DHT22;4927;52.472;13.108;2022-10-18T10:35:57;15.70;99.90
9776;DHT22;4927;52.472;13.108;2022-10-18T10:40:59;15.70;99.90
9776;DHT22;4927;52.472;13.108;2022-10-18T10:46:11;15.60;99.90
9776;DHT22;4927;52.472;13.108;2022-10-18T10:51:17;15.70;99.90
9776;DHT22;4927;52.472;13.108;2022-10-18T10:56:23;15.70;99.90
9776;DHT22;4927;52.472;13.108;2022-10-18T11:01:30;15.70;99.90
9776;DHT22;4927;52.472;13.108;2022-10-18T11:06:40;15.80;99.90
9776;DHT22;4927;52.472;13.108;2022-10-18T11:11:48;15.90;99.90
9776;DHT22;4927;52.472;13.108;2022-10-18T11:16:57;15.80;99.90
9776;DHT22;4927;52.472;13.108;2022-10-18T11:22:00;16.00;99.90
9776;DHT22;4927;52.472;13.108;2022-10-18T11:27:13;16.00;99.90
9776;DHT22;4927;52.472;13.108;2022-10-18T11:37:47;16.00;99.90
9776;DHT22;4927;52.472;13.108;2022-10-18T11:43:11;16.10;99.90
9776;DHT22;4927;52.472;13.108;2022-10-18T11:48:45;16.10;99.90
9776;DHT22;4927;52.472;13.108;2022-10-18T11:54:00;16.20;99.90
9776;DHT22;4927;52.472;13.108;2022-10-18T12:04:35;16.30;99.90
9776;DHT22;4927;52.472;13.108;2022-10-18T12:09:43;16.40;99.90
9776;DHT22;4927;52.472;13.108;2022-10-18T12:14:49;16.50;99.90
9776;DHT22;4927;52.472;13.108;2022-10-18T12:19:55;16.40;99.90
9776;DHT22;4927;52.472;13.108;2022-10-18T12:25:01;16.50;99.90
9776;DHT22;4927;52.472;13.108;2022-10-18T12:30:26;16.50;99.90
9776;DHT22;4927;52.472;13.108;2022-10-18T12:35:31;16.50;99.90
9776;DHT22;4927;52.472;13.108;2022-10-18T12:40:40;16.50;99.90
9776;DHT22;4927;52.472;13.108;2022-10-18T12:45:54;16.50;99.90
9776;DHT22;4927;52.472;13.108;2022-10-18T12:51:11;16.50;99.90
9776;DHT22;4927;52.472;13.108;2022-10-18T13:17:35;16.80;99.90
9776;DHT22;4927;52.472;13.108;2022-10-18T13:22:52;16.90;99.90
9776;DHT22;4927;52.472;13.108;2022-10-18T13:28:04;16.90;99.90
9776;DHT22;4927;52.472;13.108;2022-10-18T13:38:59;17.00;99.90
9776;DHT22;4927;52.472;13.108;2022-10-18T13:44:09;17.10;99.90
9776;DHT22;4927;52.472;13.108;2022-10-18T14:06:06;16.90;99.90
9776;DHT22;4927;52.472;13.108;2022-10-18T14:11:18;16.90;99.90
9776;DHT22;4927;52.472;13.108;2022-10-18T14:21:39;16.70;99.90
9776;DHT22;4927;52.472;13.108;2022-10-18T14:26:45;16.50;99.90
9776;DHT22;4927;52.472;13.108;2022-10-18T14:31:52;16.50;99.90
9776;DHT22;4927;52.472;13.108;2022-10-18T14:36:58;16.50;99.90
9776;DHT22;4927;52.472;13.108;2022-10-18T14:42:03;16.40;99.90
9776;DHT22;4927;52.472;13.108;2022-10-18T14:47:16;16.30;99.90
9776;DHT22;4927;52.472;13.108;2022-10-18T14:52:24;16.20;99.90
9776;DHT22;4927;52.472;13.108;2022-10-18T14:57:28;16.10;99.90
9776;DHT22;4927;52.472;13.108;2022-10-18T15:02:34;16.00;99.90
9776;DHT22;4927;52.472;13.108;2022-10-18T15:07:41;16.00;99.90
9776;DHT22;4927;52.472;13.108;2022-10-18T15:12:48;16.00;99.90
9776;DHT22;4927;52.472;13.108;2022-10-18T15:17:54;16.00;99.90
9776;DHT22;4927;52.472;13.108;2022-10-18T15:28:26;15.90;99.90
9776;DHT22;4927;52.472;13.108;2022-10-18T15:33:28;15.90;99.90
9776;DHT22;4927;52.472;13.108;2022-10-18T15:38:34;15.90;99.90
9776;DHT22;4927;52.472;13.108;2022-10-18T15:43:40;15.90;99.90
9776;DHT22;4927;52.472;13.108;2022-10-18T15:48:47;15.80;99.90
9776;DHT22;4927;52.472;13.108;2022-10-18T15:53:53;15.50;99.90
9776;DHT22;4927;52.472;13.108;2022-10-18T15:58:58;15.40;99.90
9776;DHT22;4927;52.472;13.108;2022-10-18T16:04:06;15.10;99.90
9776;DHT22;4927;52.472;13.108;2022-10-18T16:09:12;14.90;99.90
9776;DHT22;4927;52.472;13.108;2022-10-18T16:14:14;14.70;99.90
9776;DHT22;4927;52.472;13.108;2022-10-18T16:19:21;14.40;99.90
9776;DHT22;4927;52.472;13.108;2022-10-18T16:24:28;14.20;99.90
9776;DHT22;4927;52.472;13.108;2022-10-18T16:29:34;14.00;99.90
9776;DHT22;4927;52.472;13.108;2022-10-18T16:34:38;13.80;99.90
9776;DHT22;4927;52.472;13.108;2022-10-18T16:39:48;13.50;99.90
9776;DHT22;4927;52.472;13.108;2022-10-18T16:44:55;13.10;99.90
9776;DHT22;4927;52.472;13.108;2022-10-18T16:50:02;13.10;99.90
9776;DHT22;4927;52.472;13.108;2022-10-18T16:55:08;13.00;99.90
9776;DHT22;4927;52.472;13.108;2022-10-18T17:00:16;12.70;99.90
9776;DHT22;4927;52.472;13.108;2022-10-18T17:05:22;12.50;99.90
9776;DHT22;4927;52.472;13.108;2022-10-18T17:10:28;12.40;99.90
9776;DHT22;4927;52.472;13.108;2022-10-18T17:15:34;12.30;99.90
9776;DHT22;4927;52.472;13.108;2022-10-18T17:20:41;12.20;99.90
9776;DHT22;4927;52.472;13.108;2022-10-18T17:25:48;12.20;99.90
9776;DHT22;4927;52.472;13.108;2022-10-18T17:30:54;12.00;99.90
9776;DHT22;4927;52.472;13.108;2022-10-18T17:36:00;11.90;99.90
9776;DHT22;4927;52.472;13.108;2022-10-18T17:41:06;11.60;99.90
9776;DHT22;4927;52.472;13.108;2022-10-18T17:46:12;11.60;99.90
9776;DHT22;4927;52.472;13.108;2022-10-18T17:51:18;11.40;99.90
9776;DHT22;4927;52.472;13.108;2022-10-18T17:56:24;11.30;99.90
9776;DHT22;4927;52.472;13.108;2022-10-18T18:01:31;11.20;99.90
9776;DHT22;4927;52.472;13.108;2022-10-18T18:06:37;11.10;99.90
9776;DHT22;4927;52.472;13.108;2022-10-18T18:11:41;11.00;99.90
9776;DHT22;4927;52.472;13.108;2022-10-18T18:16:46;11.00;99.90
9776;DHT22;4927;52.472;13.108;2022-10-18T18:21:52;10.80;99.90
9776;DHT22;4927;52.472;13.108;2022-10-18T18:26:59;10.80;99.90
9776;DHT22;4927;52.472;13.108;2022-10-18T18:32:04;10.70;99.90
9776;DHT22;4927;52.472;13.108;2022-10-18T18:37:08;10.70;99.90
9776;DHT22;4927;52.472;13.108;2022-10-18T18:42:15;10.60;99.90
9776;DHT22;4927;52.472;13.108;2022-10-18T18:47:21;10.70;99.90
9776;DHT22;4927;52.472;13.108;2022-10-18T18:52:28;10.70;99.90
9776;DHT22;4927;52.472;13.108;2022-10-18T18:57:32;10.70;99.90
9776;DHT22;4927;52.472;13.108;2022-10-18T19:02:38;10.70;99.90
9776;DHT22;4927;52.472;13.108;2022-10-18T19:07:44;10.60;99.90
9776;DHT22;4927;52.472;13.108;2022-10-18T19:12:51;10.60;99.90
9776;DHT22;4927;52.472;13.108;2022-10-18T19:17:57;10.60;99.90
9776;DHT22;4927;52.472;13.108;2022-10-18T19:23:01;10.50;99.90
9776;DHT22;4927;52.472;13.108;2022-10-18T19:28:08;10.40;99.90
9776;DHT22;4927;52.472;13.108;2022-10-18T19:33:14;10.30;99.90
9776;DHT22;4927;52.472;13.108;2022-10-18T19:38:20;10.30;99.90
9776;DHT22;4927;52.472;13.108;2022-10-18T19:43:27;10.20;99.90
9776;DHT22;4927;52.472;13.108;2022-10-18T19:48:33;10.20;99.90
9776;DHT22;4927;52.472;13.108;2022-10-18T19:53:39;10.10;99.90
9776;DHT22;4927;52.472;13.108;2022-10-18T19:58:46;10.00;99.90
9776;DHT22;4927;52.472;13.108;2022-10-18T20:03:52;9.90;99.90
9776;DHT22;4927;52.472;13.108;2022-10-18T20:08:58;9.90;99.90
9776;DHT22;4927;52.472;13.108;2022-10-18T20:14:04;9.90;99.90
9776;DHT22;4927;52.472;13.108;2022-10-18T20:19:13;9.70;99.90
9776;DHT22;4927;52.472;13.108;2022-10-18T20:24:19;9.70;99.90
9776;DHT22;4927;52.472;13.108;2022-10-18T20:29:25;9.60;99.90
9776;DHT22;4927;52.472;13.108;2022-10-18T20:34:31;9.50;99.90
9776;DHT22;4927;52.472;13.108;2022-10-18T20:39:38;9.40;99.90
9776;DHT22;4927;52.472;13.108;2022-10-18T20:44:44;9.40;99.90
9776;DHT22;4927;52.472;13.108;2022-10-18T20:49:51;9.20;99.90
9776;DHT22;4927;52.472;13.108;2022-10-18T20:54:55;9.20;99.90
9776;DHT22;4927;52.472;13.108;2022-10-18T21:00:02;9.10;99.90
9776;DHT22;4927;52.472;13.108;2022-10-18T21:05:09;9.00;99.90
9776;DHT22;4927;52.472;13.108;2022-10-18T21:10:16;9.00;99.90
9776;DHT22;4927;52.472;13.108;2022-10-18T21:15:20;9.00;99.90
9776;DHT22;4927;52.472;13.108;2022-10-18T21:20:28;9.00;99.90
9776;DHT22;4927;52.472;13.108;2022-10-18T21:25:33;9.00;99.90
9776;DHT22;4927;52.472;13.108;2022-10-18T21:30:40;9.10;99.90
9776;DHT22;4927;52.472;13.108;2022-10-18T21:35:46;9.20;99.90
9776;DHT22;4927;52.472;13.108;2022-10-18T21:40:53;9.20;99.90
9776;DHT22;4927;52.472;13.108;2022-10-18T21:45:59;9.20;99.90
9776;DHT22;4927;52.472;13.108;2022-10-18T21:51:04;9.10;99.90
9776;DHT22;4927;52.472;13.108;2022-10-18T21:56:10;9.00;99.90
9776;DHT22;4927;52.472;13.108;2022-10-18T22:01:17;9.00;99.90
9776;DHT22;4927;52.472;13.108;2022-10-18T22:06:23;9.10;99.90
9776;DHT22;4927;52.472;13.108;2022-10-18T22:11:32;9.10;99.90
9776;DHT22;4927;52.472;13.108;2022-10-18T22:16:37;9.30;99.90
9776;DHT22;4927;52.472;13.108;2022-10-18T22:21:44;9.30;99.90
9776;DHT22;4927;52.472;13.108;2022-10-18T22:26:50;9.40;99.90
9776;DHT22;4927;52.472;13.108;2022-10-18T22:31:57;9.60;99.90
9776;DHT22;4927;52.472;13.108;2022-10-18T22:37:03;9.60;99.90
9776;DHT22;4927;52.472;13.108;2022-10-18T22:42:09;9.70;99.90
9776;DHT22;4927;52.472;13.108;2022-10-18T22:47:16;9.70;99.90
9776;DHT22;4927;52.472;13.108;2022-10-18T22:52:22;9.80;99.90
9776;DHT22;4927;52.472;13.108;2022-10-18T22:57:28;9.80;99.90
9776;DHT22;4927;52.472;13.108;2022-10-18T23:02:35;9.90;99.90
9776;DHT22;4927;52.472;13.108;2022-10-18T23:07:41;9.90;99.90
9776;DHT22;4927;52.472;13.108;2022-10-18T23:12:47;9.90;99.90
9776;DHT22;4927;52.472;13.108;2022-10-18T23:17:53;10.00;99.90
9776;DHT22;4927;52.472;13.108;2022-10-18T23:23:00;10.00;99.90
9776;DHT22;4927;52.472;13.108;2022-10-18T23:28:06;10.10;99.90
9776;DHT22;4927;52.472;13.108;2022-10-18T23:33:12;10.10;99.90
9776;DHT22;4927;52.472;13.108;2022-10-18T23:38:18;10.10;99.90
9776;DHT22;4927;52.472;13.108;2022-10-18T23:43:25;10.20;99.90
9776;DHT22;4927;52.472;13.108;2022-10-18T23:48:31;10.30;99.90
9776;DHT22;4927;52.472;13.108;2022-10-18T23:53:38;10.30;99.90
9776;DHT22;4927;52.472;13.108;2022-10-18T23:58:44;10.30;99.90
